sensor_id;sensor_type;location;lat;lon;timestamp;temperature;humidity
48551;DHT22;34397;51.176;6.738;2023-04-28T00:02:27;13.60;49.20
48551;DHT22;34397;51.176;6.738;2023-04-28T00:05:00;13.60;50.00
48551;DHT22;34397;51.176;6.738;2023-04-28T00:07:32;13.60;50.10
48551;DHT22;34397;51.176;6.738;2023-04-28T00:10:04;13.60;49.80
48551;DHT22;34397;51.176;6.738;2023-04-28T00:12:37;13.50;49.70
48551;DHT22;34397;51.176;6.738;2023-04-28T00:15:09;13.60;51.20
48551;DHT22;34397;51.176;6.738;2023-04-28T00:17:42;13.50;50.90
48551;DHT22;34397;51.176;6.738;2023-04-28T00:20:16;13.50;51.50
48551;DHT22;34397;51.176;6.738;2023-04-28T00:22:48;13.50;50.60
48551;DHT22;34397;51.176;6.738;2023-04-28T00:25:20;13.50;51.50
48551;DHT22;34397;51.176;6.738;2023-04-28T00:27:51;13.40;51.50
48551;DHT22;34397;51.176;6.738;2023-04-28T00:30:23;13.40;52.00
48551;DHT22;34397;51.176;6.738;2023-04-28T00:32:55;13.40;52.10
48551;DHT22;34397;51.176;6.738;2023-04-28T00:35:28;13.40;52.30
48551;DHT22;34397;51.176;6.738;2023-04-28T00:38:00;13.40;53.00
48551;DHT22;34397;51.176;6.738;2023-04-28T00:40:32;13.30;53.60
48551;DHT22;34397;51.176;6.738;2023-04-28T00:43:04;13.30;52.70
48551;DHT22;34397;51.176;6.738;2023-04-28T00:45:36;13.30;52.70
48551;DHT22;34397;51.176;6.738;2023-04-28T00:48:08;13.30;52.50
48551;DHT22;34397;51.176;6.738;2023-04-28T00:50:42;13.30;53.10
48551;DHT22;34397;51.176;6.738;2023-04-28T00:53:14;13.30;51.00
48551;DHT22;34397;51.176;6.738;2023-04-28T00:55:47;13.30;52.80
48551;DHT22;34397;51.176;6.738;2023-04-28T00:58:19;13.30;53.20
48551;DHT22;34397;51.176;6.738;2023-04-28T01:00:51;13.30;53.40
48551;DHT22;34397;51.176;6.738;2023-04-28T01:03:23;13.30;53.90
48551;DHT22;34397;51.176;6.738;2023-04-28T01:05:57;13.30;53.50
48551;DHT22;34397;51.176;6.738;2023-04-28T01:08:30;13.30;54.90
48551;DHT22;34397;51.176;6.738;2023-04-28T01:11:02;13.20;53.50
48551;DHT22;34397;51.176;6.738;2023-04-28T01:13:34;13.30;54.20
48551;DHT22;34397;51.176;6.738;2023-04-28T01:16:06;13.20;54.30
48551;DHT22;34397;51.176;6.738;2023-04-28T01:18:38;13.20;54.20
48551;DHT22;34397;51.176;6.738;2023-04-28T01:21:24;13.30;54.00
48551;DHT22;34397;51.176;6.738;2023-04-28T01:24:00;13.20;55.20
48551;DHT22;34397;51.176;6.738;2023-04-28T01:26:32;13.20;54.90
48551;DHT22;34397;51.176;6.738;2023-04-28T01:29:04;13.20;55.00
48551;DHT22;34397;51.176;6.738;2023-04-28T01:31:35;13.10;55.70
48551;DHT22;34397;51.176;6.738;2023-04-28T01:34:07;13.10;55.40
48551;DHT22;34397;51.176;6.738;2023-04-28T01:36:39;13.10;55.70
48551;DHT22;34397;51.176;6.738;2023-04-28T01:39:12;13.10;56.30
48551;DHT22;34397;51.176;6.738;2023-04-28T01:41:44;13.10;56.60
48551;DHT22;34397;51.176;6.738;2023-04-28T01:44:16;13.00;56.90
48551;DHT22;34397;51.176;6.738;2023-04-28T01:46:48;13.00;57.30
48551;DHT22;34397;51.176;6.738;2023-04-28T01:49:20;13.00;57.00
48551;DHT22;34397;51.176;6.738;2023-04-28T01:51:51;12.90;58.00
48551;DHT22;34397;51.176;6.738;2023-04-28T01:54:25;12.90;58.20
48551;DHT22;34397;51.176;6.738;2023-04-28T01:56:56;12.90;58.30
48551;DHT22;34397;51.176;6.738;2023-04-28T01:59:28;12.90;57.50
48551;DHT22;34397;51.176;6.738;2023-04-28T02:02:00;12.80;57.20
48551;DHT22;34397;51.176;6.738;2023-04-28T02:04:32;12.80;57.20
48551;DHT22;34397;51.176;6.738;2023-04-28T02:07:04;12.80;57.90
48551;DHT22;34397;51.176;6.738;2023-04-28T02:09:37;12.80;58.50
48551;DHT22;34397;51.176;6.738;2023-04-28T02:12:09;12.80;56.10
48551;DHT22;34397;51.176;6.738;2023-04-28T02:14:41;12.80;57.40
48551;DHT22;34397;51.176;6.738;2023-04-28T02:17:13;12.80;57.80
48551;DHT22;34397;51.176;6.738;2023-04-28T02:19:44;12.80;57.60
48551;DHT22;34397;51.176;6.738;2023-04-28T02:22:16;12.80;57.80
48551;DHT22;34397;51.176;6.738;2023-04-28T02:24:49;12.80;57.80
48551;DHT22;34397;51.176;6.738;2023-04-28T02:27:21;12.80;58.30
48551;DHT22;34397;51.176;6.738;2023-04-28T02:29:53;12.80;57.80
48551;DHT22;34397;51.176;6.738;2023-04-28T02:32:25;12.80;57.80
48551;DHT22;34397;51.176;6.738;2023-04-28T02:34:57;12.80;58.10
48551;DHT22;34397;51.176;6.738;2023-04-28T02:37:28;12.80;58.00
48551;DHT22;34397;51.176;6.738;2023-04-28T02:40:02;12.80;57.80
48551;DHT22;34397;51.176;6.738;2023-04-28T02:42:34;12.80;57.70
48551;DHT22;34397;51.176;6.738;2023-04-28T02:45:06;12.80;57.80
48551;DHT22;34397;51.176;6.738;2023-04-28T02:47:38;12.80;57.70
48551;DHT22;34397;51.176;6.738;2023-04-28T02:50:10;12.80;57.60
48551;DHT22;34397;51.176;6.738;2023-04-28T02:52:42;12.80;57.70
48551;DHT22;34397;51.176;6.738;2023-04-28T02:55:15;12.70;57.80
48551;DHT22;34397;51.176;6.738;2023-04-28T02:57:53;12.80;58.10
48551;DHT22;34397;51.176;6.738;2023-04-28T03:00:25;12.70;58.00
48551;DHT22;34397;51.176;6.738;2023-04-28T03:02:57;12.70;57.90
48551;DHT22;34397;51.176;6.738;2023-04-28T03:05:29;12.70;58.10
48551;DHT22;34397;51.176;6.738;2023-04-28T03:08:01;12.70;58.40
48551;DHT22;34397;51.176;6.738;2023-04-28T03:10:34;12.70;58.30
48551;DHT22;34397;51.176;6.738;2023-04-28T03:13:06;12.60;58.50
48551;DHT22;34397;51.176;6.738;2023-04-28T03:15:37;12.60;58.70
48551;DHT22;34397;51.176;6.738;2023-04-28T03:18:10;12.60;58.60
48551;DHT22;34397;51.176;6.738;2023-04-28T03:20:41;12.60;58.80
48551;DHT22;34397;51.176;6.738;2023-04-28T03:23:13;12.60;58.80
48551;DHT22;34397;51.176;6.738;2023-04-28T03:25:47;12.60;58.70
48551;DHT22;34397;51.176;6.738;2023-04-28T03:28:19;12.60;59.00
48551;DHT22;34397;51.176;6.738;2023-04-28T03:30:51;12.50;59.00
48551;DHT22;34397;51.176;6.738;2023-04-28T03:33:23;12.50;59.10
48551;DHT22;34397;51.176;6.738;2023-04-28T03:35:55;12.60;59.00
48551;DHT22;34397;51.176;6.738;2023-04-28T03:38:26;12.60;59.00
48551;DHT22;34397;51.176;6.738;2023-04-28T03:41:00;12.60;59.10
48551;DHT22;34397;51.176;6.738;2023-04-28T03:43:31;12.60;59.20
48551;DHT22;34397;51.176;6.738;2023-04-28T03:46:04;12.60;59.10
48551;DHT22;34397;51.176;6.738;2023-04-28T03:48:36;12.60;59.10
48551;DHT22;34397;51.176;6.738;2023-04-28T03:51:08;12.60;59.30
48551;DHT22;34397;51.176;6.738;2023-04-28T03:53:40;12.60;59.30
48551;DHT22;34397;51.176;6.738;2023-04-28T03:56:13;12.50;59.30
48551;DHT22;34397;51.176;6.738;2023-04-28T03:58:45;12.60;59.50
48551;DHT22;34397;51.176;6.738;2023-04-28T04:01:17;12.60;59.40
48551;DHT22;34397;51.176;6.738;2023-04-28T04:03:50;12.50;59.30
48551;DHT22;34397;51.176;6.738;2023-04-28T04:06:22;12.50;59.40
48551;DHT22;34397;51.176;6.738;2023-04-28T04:08:53;12.50;59.60
48551;DHT22;34397;51.176;6.738;2023-04-28T04:11:27;12.50;59.60
48551;DHT22;34397;51.176;6.738;2023-04-28T04:13:58;12.50;60.00
48551;DHT22;34397;51.176;6.738;2023-04-28T04:16:30;12.40;59.70
48551;DHT22;34397;51.176;6.738;2023-04-28T04:19:02;12.40;60.30
48551;DHT22;34397;51.176;6.738;2023-04-28T04:21:34;12.40;60.20
48551;DHT22;34397;51.176;6.738;2023-04-28T04:24:06;12.40;60.00
48551;DHT22;34397;51.176;6.738;2023-04-28T04:26:40;12.40;60.10
48551;DHT22;34397;51.176;6.738;2023-04-28T04:29:11;12.40;60.30
48551;DHT22;34397;51.176;6.738;2023-04-28T04:31:43;12.30;60.10
48551;DHT22;34397;51.176;6.738;2023-04-28T04:34:15;12.30;60.40
48551;DHT22;34397;51.176;6.738;2023-04-28T04:36:47;12.40;60.60
48551;DHT22;34397;51.176;6.738;2023-04-28T04:39:19;12.30;60.40
48551;DHT22;34397;51.176;6.738;2023-04-28T04:41:52;12.40;60.40
48551;DHT22;34397;51.176;6.738;2023-04-28T04:44:24;12.40;60.60
48551;DHT22;34397;51.176;6.738;2023-04-28T04:46:56;12.40;60.60
48551;DHT22;34397;51.176;6.738;2023-04-28T04:49:28;12.40;60.50
48551;DHT22;34397;51.176;6.738;2023-04-28T04:51:59;12.40;60.50
48551;DHT22;34397;51.176;6.738;2023-04-28T04:54:32;12.40;60.40
48551;DHT22;34397;51.176;6.738;2023-04-28T04:57:05;12.40;60.60
48551;DHT22;34397;51.176;6.738;2023-04-28T04:59:37;12.40;60.70
48551;DHT22;34397;51.176;6.738;2023-04-28T05:02:09;12.40;61.20
48551;DHT22;34397;51.176;6.738;2023-04-28T05:04:41;12.30;61.10
48551;DHT22;34397;51.176;6.738;2023-04-28T05:07:12;12.30;60.70
48551;DHT22;34397;51.176;6.738;2023-04-28T05:09:44;12.30;60.80
48551;DHT22;34397;51.176;6.738;2023-04-28T05:12:17;12.30;60.80
48551;DHT22;34397;51.176;6.738;2023-04-28T05:14:49;12.40;60.90
48551;DHT22;34397;51.176;6.738;2023-04-28T05:17:21;12.40;60.80
48551;DHT22;34397;51.176;6.738;2023-04-28T05:19:53;12.40;60.80
48551;DHT22;34397;51.176;6.738;2023-04-28T05:22:25;12.40;60.90
48551;DHT22;34397;51.176;6.738;2023-04-28T05:24:56;12.40;60.70
48551;DHT22;34397;51.176;6.738;2023-04-28T05:27:30;12.40;60.80
48551;DHT22;34397;51.176;6.738;2023-04-28T05:30:02;12.40;60.90
48551;DHT22;34397;51.176;6.738;2023-04-28T05:32:34;12.40;60.80
48551;DHT22;34397;51.176;6.738;2023-04-28T05:35:07;12.40;59.80
48551;DHT22;34397;51.176;6.738;2023-04-28T05:37:39;12.40;59.60
48551;DHT22;34397;51.176;6.738;2023-04-28T05:40:13;12.50;60.30
48551;DHT22;34397;51.176;6.738;2023-04-28T05:42:46;12.50;60.70
48551;DHT22;34397;51.176;6.738;2023-04-28T05:45:17;12.40;60.80
48551;DHT22;34397;51.176;6.738;2023-04-28T05:47:50;12.40;60.90
48551;DHT22;34397;51.176;6.738;2023-04-28T05:50:22;12.50;61.40
48551;DHT22;34397;51.176;6.738;2023-04-28T05:52:54;12.40;61.20
48551;DHT22;34397;51.176;6.738;2023-04-28T05:55:25;12.40;60.90
48551;DHT22;34397;51.176;6.738;2023-04-28T05:57:59;12.50;60.70
48551;DHT22;34397;51.176;6.738;2023-04-28T06:00:32;12.50;60.90
48551;DHT22;34397;51.176;6.738;2023-04-28T06:03:04;12.60;60.90
48551;DHT22;34397;51.176;6.738;2023-04-28T06:05:36;12.60;60.80
48551;DHT22;34397;51.176;6.738;2023-04-28T06:08:08;12.60;61.00
48551;DHT22;34397;51.176;6.738;2023-04-28T06:10:40;12.70;60.80
48551;DHT22;34397;51.176;6.738;2023-04-28T06:13:13;12.70;60.60
48551;DHT22;34397;51.176;6.738;2023-04-28T06:15:45;12.80;60.50
48551;DHT22;34397;51.176;6.738;2023-04-28T06:18:17;12.80;60.70
48551;DHT22;34397;51.176;6.738;2023-04-28T06:20:49;12.80;60.80
48551;DHT22;34397;51.176;6.738;2023-04-28T06:23:20;12.80;60.70
48551;DHT22;34397;51.176;6.738;2023-04-28T06:25:52;12.80;60.70
48551;DHT22;34397;51.176;6.738;2023-04-28T06:28:25;12.90;60.40
48551;DHT22;34397;51.176;6.738;2023-04-28T06:30:57;12.90;60.70
48551;DHT22;34397;51.176;6.738;2023-04-28T06:33:29;12.90;60.90
48551;DHT22;34397;51.176;6.738;2023-04-28T06:36:01;12.90;60.60
48551;DHT22;34397;51.176;6.738;2023-04-28T06:38:34;12.90;60.70
48551;DHT22;34397;51.176;6.738;2023-04-28T06:41:06;12.90;60.90
48551;DHT22;34397;51.176;6.738;2023-04-28T06:43:40;12.90;60.50
48551;DHT22;34397;51.176;6.738;2023-04-28T06:46:11;12.90;60.90
48551;DHT22;34397;51.176;6.738;2023-04-28T06:48:43;12.90;60.80
48551;DHT22;34397;51.176;6.738;2023-04-28T06:51:15;13.00;60.80
48551;DHT22;34397;51.176;6.738;2023-04-28T06:53:47;13.00;61.30
48551;DHT22;34397;51.176;6.738;2023-04-28T06:56:20;13.00;61.50
48551;DHT22;34397;51.176;6.738;2023-04-28T06:58:55;13.00;61.30
48551;DHT22;34397;51.176;6.738;2023-04-28T07:01:28;13.00;61.70
48551;DHT22;34397;51.176;6.738;2023-04-28T07:04:00;13.00;61.60
48551;DHT22;34397;51.176;6.738;2023-04-28T07:06:31;13.00;61.80
48551;DHT22;34397;51.176;6.738;2023-04-28T07:09:03;13.10;61.60
48551;DHT22;34397;51.176;6.738;2023-04-28T07:11:35;13.10;62.10
48551;DHT22;34397;51.176;6.738;2023-04-28T07:14:08;13.20;62.20
48551;DHT22;34397;51.176;6.738;2023-04-28T07:16:40;13.20;62.00
48551;DHT22;34397;51.176;6.738;2023-04-28T07:19:12;13.20;61.90
48551;DHT22;34397;51.176;6.738;2023-04-28T07:21:44;13.30;61.10
48551;DHT22;34397;51.176;6.738;2023-04-28T07:24:16;13.30;61.30
48551;DHT22;34397;51.176;6.738;2023-04-28T07:26:48;13.30;60.90
48551;DHT22;34397;51.176;6.738;2023-04-28T07:29:21;13.30;62.20
48551;DHT22;34397;51.176;6.738;2023-04-28T07:31:53;13.30;61.80
48551;DHT22;34397;51.176;6.738;2023-04-28T07:34:24;13.30;61.70
48551;DHT22;34397;51.176;6.738;2023-04-28T07:36:56;13.40;61.90
48551;DHT22;34397;51.176;6.738;2023-04-28T07:39:30;13.40;61.70
48551;DHT22;34397;51.176;6.738;2023-04-28T07:42:03;13.30;62.20
48551;DHT22;34397;51.176;6.738;2023-04-28T07:44:36;13.40;61.80
48551;DHT22;34397;51.176;6.738;2023-04-28T07:47:08;13.40;62.90
48551;DHT22;34397;51.176;6.738;2023-04-28T07:49:40;13.40;63.00
48551;DHT22;34397;51.176;6.738;2023-04-28T07:52:11;13.40;62.50
48551;DHT22;34397;51.176;6.738;2023-04-28T07:54:43;13.40;62.30
48551;DHT22;34397;51.176;6.738;2023-04-28T07:57:15;13.40;62.30
48551;DHT22;34397;51.176;6.738;2023-04-28T07:59:49;13.40;60.80
48551;DHT22;34397;51.176;6.738;2023-04-28T08:02:21;13.50;61.80
48551;DHT22;34397;51.176;6.738;2023-04-28T08:04:52;13.60;61.80
48551;DHT22;34397;51.176;6.738;2023-04-28T08:07:24;13.60;61.20
48551;DHT22;34397;51.176;6.738;2023-04-28T08:09:56;13.60;61.10
48551;DHT22;34397;51.176;6.738;2023-04-28T08:12:28;13.60;61.90
48551;DHT22;34397;51.176;6.738;2023-04-28T08:15:02;13.60;62.60
48551;DHT22;34397;51.176;6.738;2023-04-28T08:17:34;13.70;62.60
48551;DHT22;34397;51.176;6.738;2023-04-28T08:20:07;13.70;62.70
48551;DHT22;34397;51.176;6.738;2023-04-28T08:22:40;13.70;63.30
48551;DHT22;34397;51.176;6.738;2023-04-28T08:25:12;13.70;64.10
48551;DHT22;34397;51.176;6.738;2023-04-28T08:27:44;13.80;64.00
48551;DHT22;34397;51.176;6.738;2023-04-28T08:30:17;13.80;64.00
48551;DHT22;34397;51.176;6.738;2023-04-28T08:32:49;13.90;64.00
48551;DHT22;34397;51.176;6.738;2023-04-28T08:35:21;13.90;63.60
48551;DHT22;34397;51.176;6.738;2023-04-28T08:37:53;14.00;63.80
48551;DHT22;34397;51.176;6.738;2023-04-28T08:40:25;14.00;63.70
48551;DHT22;34397;51.176;6.738;2023-04-28T08:42:59;14.00;63.80
48551;DHT22;34397;51.176;6.738;2023-04-28T08:45:40;14.00;63.10
48551;DHT22;34397;51.176;6.738;2023-04-28T08:48:18;14.10;64.20
48551;DHT22;34397;51.176;6.738;2023-04-28T08:50:52;14.10;64.10
48551;DHT22;34397;51.176;6.738;2023-04-28T08:53:25;14.10;63.80
48551;DHT22;34397;51.176;6.738;2023-04-28T08:55:58;14.10;63.40
48551;DHT22;34397;51.176;6.738;2023-04-28T08:58:30;14.10;64.00
48551;DHT22;34397;51.176;6.738;2023-04-28T09:01:04;14.00;63.80
48551;DHT22;34397;51.176;6.738;2023-04-28T09:03:36;14.10;64.00
48551;DHT22;34397;51.176;6.738;2023-04-28T09:06:08;14.10;64.40
48551;DHT22;34397;51.176;6.738;2023-04-28T09:08:39;14.10;64.50
48551;DHT22;34397;51.176;6.738;2023-04-28T09:11:12;14.00;64.20
48551;DHT22;34397;51.176;6.738;2023-04-28T09:13:44;14.00;64.80
48551;DHT22;34397;51.176;6.738;2023-04-28T09:16:17;14.10;64.50
48551;DHT22;34397;51.176;6.738;2023-04-28T09:18:55;14.10;65.30
48551;DHT22;34397;51.176;6.738;2023-04-28T09:21:27;14.20;65.80
48551;DHT22;34397;51.176;6.738;2023-04-28T09:23:59;14.20;65.20
48551;DHT22;34397;51.176;6.738;2023-04-28T09:26:47;14.30;65.20
48551;DHT22;34397;51.176;6.738;2023-04-28T09:29:20;14.30;66.40
48551;DHT22;34397;51.176;6.738;2023-04-28T09:31:53;14.40;65.20
48551;DHT22;34397;51.176;6.738;2023-04-28T09:34:25;14.40;66.00
48551;DHT22;34397;51.176;6.738;2023-04-28T09:37:15;14.40;65.30
48551;DHT22;34397;51.176;6.738;2023-04-28T09:39:51;14.50;65.60
48551;DHT22;34397;51.176;6.738;2023-04-28T09:42:31;14.50;66.30
48551;DHT22;34397;51.176;6.738;2023-04-28T09:45:05;14.60;67.30
48551;DHT22;34397;51.176;6.738;2023-04-28T09:47:41;14.60;66.40
48551;DHT22;34397;51.176;6.738;2023-04-28T09:50:16;14.60;67.10
48551;DHT22;34397;51.176;6.738;2023-04-28T09:52:55;14.60;66.30
48551;DHT22;34397;51.176;6.738;2023-04-28T09:55:29;14.60;67.40
48551;DHT22;34397;51.176;6.738;2023-04-28T09:58:05;14.60;67.30
48551;DHT22;34397;51.176;6.738;2023-04-28T10:04:25;14.70;67.90
48551;DHT22;34397;51.176;6.738;2023-04-28T10:07:00;14.70;66.80
48551;DHT22;34397;51.176;6.738;2023-04-28T10:09:33;14.70;66.80
48551;DHT22;34397;51.176;6.738;2023-04-28T10:12:05;14.70;67.60
48551;DHT22;34397;51.176;6.738;2023-04-28T10:14:37;14.60;67.00
48551;DHT22;34397;51.176;6.738;2023-04-28T10:17:10;14.60;67.30
48551;DHT22;34397;51.176;6.738;2023-04-28T10:19:45;14.60;68.40
48551;DHT22;34397;51.176;6.738;2023-04-28T10:22:28;14.60;69.40
48551;DHT22;34397;51.176;6.738;2023-04-28T10:25:25;14.60;70.70
48551;DHT22;34397;51.176;6.738;2023-04-28T10:27:58;14.60;72.50
48551;DHT22;34397;51.176;6.738;2023-04-28T10:30:31;14.60;70.40
48551;DHT22;34397;51.176;6.738;2023-04-28T10:33:22;14.60;71.60
48551;DHT22;34397;51.176;6.738;2023-04-28T10:35:57;14.60;72.50
48551;DHT22;34397;51.176;6.738;2023-04-28T10:38:29;14.60;71.10
48551;DHT22;34397;51.176;6.738;2023-04-28T10:41:01;14.60;70.70
48551;DHT22;34397;51.176;6.738;2023-04-28T10:43:35;14.60;70.80
48551;DHT22;34397;51.176;6.738;2023-04-28T10:46:09;14.60;71.70
48551;DHT22;34397;51.176;6.738;2023-04-28T10:48:54;14.60;71.90
48551;DHT22;34397;51.176;6.738;2023-04-28T10:51:31;14.70;73.20
48551;DHT22;34397;51.176;6.738;2023-04-28T10:54:07;14.70;72.90
48551;DHT22;34397;51.176;6.738;2023-04-28T10:59:50;14.80;72.20
48551;DHT22;34397;51.176;6.738;2023-04-28T11:02:41;14.80;73.70
48551;DHT22;34397;51.176;6.738;2023-04-28T11:05:16;14.90;74.60
48551;DHT22;34397;51.176;6.738;2023-04-28T11:11:22;14.90;76.30
48551;DHT22;34397;51.176;6.738;2023-04-28T11:14:31;15.00;76.10
48551;DHT22;34397;51.176;6.738;2023-04-28T11:17:05;15.10;76.40
48551;DHT22;34397;51.176;6.738;2023-04-28T11:19:39;15.30;75.20
48551;DHT22;34397;51.176;6.738;2023-04-28T11:22:16;15.30;75.30
48551;DHT22;34397;51.176;6.738;2023-04-28T11:24:58;15.40;75.70
48551;DHT22;34397;51.176;6.738;2023-04-28T11:27:32;15.40;75.60
48551;DHT22;34397;51.176;6.738;2023-04-28T11:30:19;15.60;73.70
48551;DHT22;34397;51.176;6.738;2023-04-28T11:32:52;15.60;74.80
48551;DHT22;34397;51.176;6.738;2023-04-28T11:35:25;15.70;74.00
48551;DHT22;34397;51.176;6.738;2023-04-28T11:38:11;15.80;74.50
48551;DHT22;34397;51.176;6.738;2023-04-28T11:40:56;16.00;74.90
48551;DHT22;34397;51.176;6.738;2023-04-28T11:43:28;16.30;75.80
48551;DHT22;34397;51.176;6.738;2023-04-28T11:46:01;16.70;74.70
48551;DHT22;34397;51.176;6.738;2023-04-28T11:48:33;17.00;73.30
48551;DHT22;34397;51.176;6.738;2023-04-28T11:51:05;17.10;72.60
48551;DHT22;34397;51.176;6.738;2023-04-28T11:53:40;17.40;71.90
48551;DHT22;34397;51.176;6.738;2023-04-28T11:56:14;17.50;70.60
48551;DHT22;34397;51.176;6.738;2023-04-28T11:58:46;17.60;70.50
48551;DHT22;34397;51.176;6.738;2023-04-28T12:01:31;17.60;69.30
48551;DHT22;34397;51.176;6.738;2023-04-28T12:04:03;17.70;67.80
48551;DHT22;34397;51.176;6.738;2023-04-28T12:06:35;17.60;68.10
48551;DHT22;34397;51.176;6.738;2023-04-28T12:09:15;17.60;67.90
48551;DHT22;34397;51.176;6.738;2023-04-28T12:11:56;17.60;68.30
48551;DHT22;34397;51.176;6.738;2023-04-28T12:14:29;17.50;68.20
48551;DHT22;34397;51.176;6.738;2023-04-28T12:17:02;17.50;68.70
48551;DHT22;34397;51.176;6.738;2023-04-28T12:19:42;17.50;69.50
48551;DHT22;34397;51.176;6.738;2023-04-28T12:22:28;17.50;71.60
48551;DHT22;34397;51.176;6.738;2023-04-28T12:25:16;17.60;69.00
48551;DHT22;34397;51.176;6.738;2023-04-28T12:28:00;17.70;68.70
48551;DHT22;34397;51.176;6.738;2023-04-28T12:30:34;17.80;68.40
48551;DHT22;34397;51.176;6.738;2023-04-28T12:33:21;18.00;68.60
48551;DHT22;34397;51.176;6.738;2023-04-28T12:35:55;18.10;67.50
48551;DHT22;34397;51.176;6.738;2023-04-28T12:38:28;18.20;68.30
48551;DHT22;34397;51.176;6.738;2023-04-28T12:41:02;18.30;66.90
48551;DHT22;34397;51.176;6.738;2023-04-28T12:43:35;18.40;67.00
48551;DHT22;34397;51.176;6.738;2023-04-28T12:46:10;18.50;65.10
48551;DHT22;34397;51.176;6.738;2023-04-28T12:48:49;18.50;65.20
48551;DHT22;34397;51.176;6.738;2023-04-28T12:51:24;18.50;65.00
48551;DHT22;34397;51.176;6.738;2023-04-28T12:53:59;18.50;64.90
48551;DHT22;34397;51.176;6.738;2023-04-28T12:56:31;18.50;65.50
48551;DHT22;34397;51.176;6.738;2023-04-28T12:59:04;18.50;64.60
48551;DHT22;34397;51.176;6.738;2023-04-28T13:01:36;18.50;64.10
48551;DHT22;34397;51.176;6.738;2023-04-28T13:04:08;18.60;64.30
48551;DHT22;34397;51.176;6.738;2023-04-28T13:06:44;18.60;64.70
48551;DHT22;34397;51.176;6.738;2023-04-28T13:09:41;18.80;65.40
48551;DHT22;34397;51.176;6.738;2023-04-28T13:12:26;19.00;65.80
48551;DHT22;34397;51.176;6.738;2023-04-28T13:18:15;19.50;65.40
48551;DHT22;34397;51.176;6.738;2023-04-28T13:20:55;19.80;64.60
48551;DHT22;34397;51.176;6.738;2023-04-28T13:23:44;20.00;63.90
48551;DHT22;34397;51.176;6.738;2023-04-28T13:26:28;20.10;63.00
48551;DHT22;34397;51.176;6.738;2023-04-28T13:29:07;20.20;61.70
48551;DHT22;34397;51.176;6.738;2023-04-28T13:31:47;20.30;61.30
48551;DHT22;34397;51.176;6.738;2023-04-28T13:34:19;20.50;62.00
48551;DHT22;34397;51.176;6.738;2023-04-28T13:36:51;20.60;61.90
48551;DHT22;34397;51.176;6.738;2023-04-28T13:39:24;20.80;61.90
48551;DHT22;34397;51.176;6.738;2023-04-28T13:42:00;21.00;60.50
48551;DHT22;34397;51.176;6.738;2023-04-28T13:44:35;21.10;60.50
48551;DHT22;34397;51.176;6.738;2023-04-28T13:47:08;21.30;59.60
48551;DHT22;34397;51.176;6.738;2023-04-28T13:49:40;21.30;58.40
48551;DHT22;34397;51.176;6.738;2023-04-28T13:52:12;21.30;57.90
48551;DHT22;34397;51.176;6.738;2023-04-28T13:54:44;21.30;58.00
48551;DHT22;34397;51.176;6.738;2023-04-28T13:57:16;21.30;57.20
48551;DHT22;34397;51.176;6.738;2023-04-28T13:59:48;21.30;56.00
48551;DHT22;34397;51.176;6.738;2023-04-28T14:02:22;21.00;54.60
48551;DHT22;34397;51.176;6.738;2023-04-28T14:04:54;20.80;55.20
48551;DHT22;34397;51.176;6.738;2023-04-28T14:07:26;21.00;55.20
48551;DHT22;34397;51.176;6.738;2023-04-28T14:09:58;21.10;55.00
48551;DHT22;34397;51.176;6.738;2023-04-28T14:12:31;21.30;54.40
48551;DHT22;34397;51.176;6.738;2023-04-28T14:15:05;21.40;54.50
48551;DHT22;34397;51.176;6.738;2023-04-28T14:17:39;21.40;54.10
48551;DHT22;34397;51.176;6.738;2023-04-28T14:20:11;21.50;53.20
48551;DHT22;34397;51.176;6.738;2023-04-28T14:22:43;21.40;53.40
48551;DHT22;34397;51.176;6.738;2023-04-28T14:25:16;21.30;54.10
48551;DHT22;34397;51.176;6.738;2023-04-28T14:27:49;21.30;54.20
48551;DHT22;34397;51.176;6.738;2023-04-28T14:30:21;21.40;53.70
48551;DHT22;34397;51.176;6.738;2023-04-28T14:32:56;21.50;53.40
48551;DHT22;34397;51.176;6.738;2023-04-28T14:35:28;21.50;53.50
48551;DHT22;34397;51.176;6.738;2023-04-28T14:38:02;21.60;52.60
48551;DHT22;34397;51.176;6.738;2023-04-28T14:40:34;21.50;52.30
48551;DHT22;34397;51.176;6.738;2023-04-28T14:43:06;21.30;52.30
48551;DHT22;34397;51.176;6.738;2023-04-28T14:45:38;21.00;52.70
48551;DHT22;34397;51.176;6.738;2023-04-28T14:48:11;20.90;53.70
48551;DHT22;34397;51.176;6.738;2023-04-28T14:50:44;20.80;53.70
48551;DHT22;34397;51.176;6.738;2023-04-28T14:53:17;20.60;53.20
48551;DHT22;34397;51.176;6.738;2023-04-28T14:55:48;20.50;53.50
48551;DHT22;34397;51.176;6.738;2023-04-28T14:58:21;20.30;53.70
48551;DHT22;34397;51.176;6.738;2023-04-28T15:00:53;20.20;54.10
48551;DHT22;34397;51.176;6.738;2023-04-28T15:03:27;20.00;54.40
48551;DHT22;34397;51.176;6.738;2023-04-28T15:05:59;19.90;55.40
48551;DHT22;34397;51.176;6.738;2023-04-28T15:08:33;19.80;54.90
48551;DHT22;34397;51.176;6.738;2023-04-28T15:11:04;19.70;55.40
48551;DHT22;34397;51.176;6.738;2023-04-28T15:13:36;19.50;56.40
48551;DHT22;34397;51.176;6.738;2023-04-28T15:16:08;19.50;56.80
48551;DHT22;34397;51.176;6.738;2023-04-28T15:18:42;19.50;56.70
48551;DHT22;34397;51.176;6.738;2023-04-28T15:21:14;19.40;56.70
48551;DHT22;34397;51.176;6.738;2023-04-28T15:23:45;19.30;57.30
48551;DHT22;34397;51.176;6.738;2023-04-28T15:26:18;19.10;57.80
48551;DHT22;34397;51.176;6.738;2023-04-28T15:28:50;18.90;57.80
48551;DHT22;34397;51.176;6.738;2023-04-28T15:31:22;18.90;58.00
48551;DHT22;34397;51.176;6.738;2023-04-28T15:33:56;18.80;58.50
48551;DHT22;34397;51.176;6.738;2023-04-28T15:36:29;18.80;59.00
48551;DHT22;34397;51.176;6.738;2023-04-28T15:39:09;18.70;59.20
48551;DHT22;34397;51.176;6.738;2023-04-28T15:41:52;18.70;59.30
48551;DHT22;34397;51.176;6.738;2023-04-28T15:44:35;18.70;59.20
48551;DHT22;34397;51.176;6.738;2023-04-28T15:47:23;18.60;58.30
48551;DHT22;34397;51.176;6.738;2023-04-28T15:50:07;18.60;58.30
48551;DHT22;34397;51.176;6.738;2023-04-28T15:53:00;18.40;57.90
48551;DHT22;34397;51.176;6.738;2023-04-28T15:55:43;18.40;57.70
48551;DHT22;34397;51.176;6.738;2023-04-28T15:58:38;18.30;56.80
48551;DHT22;34397;51.176;6.738;2023-04-28T16:01:14;18.20;57.10
48551;DHT22;34397;51.176;6.738;2023-04-28T16:04:06;18.10;56.60
48551;DHT22;34397;51.176;6.738;2023-04-28T16:06:45;18.00;56.40
48551;DHT22;34397;51.176;6.738;2023-04-28T16:09:19;17.90;56.50
48551;DHT22;34397;51.176;6.738;2023-04-28T16:12:03;17.80;56.80
48551;DHT22;34397;51.176;6.738;2023-04-28T16:14:37;17.70;56.80
48551;DHT22;34397;51.176;6.738;2023-04-28T16:17:09;17.60;56.90
48551;DHT22;34397;51.176;6.738;2023-04-28T16:19:50;17.50;57.30
48551;DHT22;34397;51.176;6.738;2023-04-28T16:22:28;17.40;57.50
48551;DHT22;34397;51.176;6.738;2023-04-28T16:25:32;17.40;57.70
48551;DHT22;34397;51.176;6.738;2023-04-28T16:28:06;17.40;57.90